createdAt,value
2023-02-14T00:00:58.187Z,11.35
2023-02-14T00:03:25.261Z,11.07
2023-02-14T00:05:52.133Z,11.98
2023-02-14T00:08:19.287Z,10.80
2023-02-14T00:10:46.553Z,11.13
2023-02-14T00:13:13.407Z,11.20
2023-02-14T00:15:40.458Z,10.82
2023-02-14T00:18:07.573Z,11.38
2023-02-14T00:20:34.696Z,11.32
2023-02-14T00:23:01.598Z,11.23
2023-02-14T00:25:28.576Z,11.75
2023-02-14T00:27:57.047Z,11.55
2023-02-14T00:30:25.118Z,11.38
2023-02-14T00:32:57.410Z,11.48
2023-02-14T00:35:25.219Z,11.77
2023-02-14T00:41:19.384Z,10.55
2023-02-14T00:43:51.542Z,11.65
2023-02-14T00:46:20.184Z,11.13
2023-02-14T00:48:47.711Z,11.80
2023-02-14T00:51:15.497Z,11.07
2023-02-14T00:53:42.591Z,11.50
2023-02-14T00:56:09.746Z,11.68
2023-02-14T00:58:36.830Z,12.25
2023-02-14T01:01:06.960Z,10.90
2023-02-14T01:03:36.208Z,11.07
2023-02-14T01:06:05.936Z,11.27
2023-02-14T01:08:33.583Z,10.18
2023-02-14T01:11:10.756Z,11.55
2023-02-14T01:13:38.041Z,10.43
2023-02-14T01:16:10.115Z,10.75
2023-02-14T01:18:37.346Z,11.02
2023-02-14T01:24:13.972Z,10.82
2023-02-14T01:29:25.405Z,11.60
2023-02-14T01:31:52.495Z,11.90
2023-02-14T01:34:19.511Z,11.13
2023-02-14T01:36:46.647Z,10.63
2023-02-14T01:39:15.184Z,10.70
2023-02-14T01:41:44.620Z,11.65
2023-02-14T01:44:14.515Z,11.50
2023-02-14T01:46:43.230Z,11.40
2023-02-14T01:49:26.177Z,11.15
2023-02-14T01:52:04.263Z,12.25
2023-02-14T01:54:33.761Z,11.05
2023-02-14T01:57:04.876Z,11.20
2023-02-14T01:59:38.281Z,11.45
2023-02-14T02:02:06.178Z,11.77
2023-02-14T02:04:37.134Z,11.60
2023-02-14T02:07:07.743Z,12.43
2023-02-14T02:10:00.320Z,12.82
2023-02-14T02:12:30.525Z,13.43
2023-02-14T02:14:58.968Z,13.35
2023-02-14T02:17:46.447Z,13.20
2023-02-14T02:20:36.176Z,13.73
2023-02-14T02:23:37.649Z,12.75
2023-02-14T02:26:31.969Z,13.70
2023-02-14T02:29:20.280Z,11.70
2023-02-14T02:32:25.311Z,13.00
2023-02-14T02:35:01.471Z,12.73
2023-02-14T02:38:04.277Z,13.70
2023-02-14T02:40:46.790Z,13.35
2023-02-14T02:43:32.121Z,14.18
2023-02-14T02:46:23.587Z,13.98
2023-02-14T02:49:02.181Z,14.18
2023-02-14T02:51:57.652Z,14.45
2023-02-14T02:54:36.156Z,14.32
2023-02-14T02:57:10.202Z,14.98
2023-02-14T02:59:43.837Z,13.93
2023-02-14T03:02:15.305Z,13.57
2023-02-14T03:04:57.786Z,14.45
2023-02-14T03:07:39.855Z,13.43
2023-02-14T03:10:25.221Z,13.70
2023-02-14T03:13:04.310Z,13.40
2023-02-14T03:16:05.418Z,12.85
2023-02-14T03:18:35.378Z,13.23
2023-02-14T03:21:17.143Z,13.45
2023-02-14T03:24:08.401Z,14.82
2023-02-14T03:26:43.123Z,14.10
2023-02-14T03:29:26.287Z,14.45
2023-02-14T03:32:00.710Z,14.25
2023-02-14T03:34:45.548Z,13.07
2023-02-14T03:37:21.938Z,12.52
2023-02-14T03:39:55.160Z,12.77
2023-02-14T03:42:28.499Z,12.35
2023-02-14T03:44:56.763Z,13.38
2023-02-14T03:47:27.509Z,14.30
2023-02-14T03:49:59.657Z,13.60
2023-02-14T03:52:28.747Z,14.90
2023-02-14T03:54:58.480Z,14.52
2023-02-14T03:57:47.811Z,14.30
2023-02-14T04:00:15.719Z,13.50
2023-02-14T04:02:48.188Z,13.68
2023-02-14T04:05:23.245Z,13.48
2023-02-14T04:07:55.656Z,14.93
2023-02-14T04:10:23.544Z,14.25
2023-02-14T04:12:51.113Z,14.65
2023-02-14T04:15:18.672Z,14.73
2023-02-14T04:18:04.187Z,13.50
2023-02-14T04:20:31.297Z,13.65
2023-02-14T04:22:58.332Z,15.02
2023-02-14T04:25:26.018Z,14.15
2023-02-14T04:27:53.361Z,14.43
2023-02-14T04:30:22.807Z,14.07
2023-02-14T04:32:50.013Z,14.25
2023-02-14T04:35:17.570Z,14.18
2023-02-14T04:37:45.626Z,13.82
2023-02-14T04:40:16.791Z,14.18
2023-02-14T04:42:45.465Z,14.13
2023-02-14T04:45:13.244Z,14.32
2023-02-14T04:47:40.600Z,14.48
2023-02-14T04:50:08.354Z,15.90
2023-02-14T04:52:37.492Z,15.00
2023-02-14T04:55:09.718Z,14.77
2023-02-14T04:57:36.706Z,14.65
2023-02-14T05:00:08.297Z,14.25
2023-02-14T05:02:35.927Z,14.05
2023-02-14T05:05:03.557Z,14.65
2023-02-14T05:07:30.692Z,15.27
2023-02-14T05:09:57.671Z,14.82
2023-02-14T05:12:26.704Z,15.32
2023-02-14T05:14:57.607Z,15.10
2023-02-14T05:17:24.911Z,15.20
2023-02-14T05:19:52.058Z,15.25
2023-02-14T05:22:23.357Z,14.85
2023-02-14T05:24:50.334Z,14.90
2023-02-14T05:27:17.235Z,14.43
2023-02-14T05:29:44.184Z,14.40
2023-02-14T05:32:11.221Z,13.50
2023-02-14T05:34:42.595Z,14.88
2023-02-14T05:37:09.582Z,14.05
2023-02-14T05:39:36.459Z,15.48
2023-02-14T05:42:03.507Z,15.45
2023-02-14T05:44:30.391Z,15.32
2023-02-14T05:47:05.172Z,15.93
2023-02-14T05:49:32.136Z,16.38
2023-02-14T05:51:59.185Z,15.65
2023-02-14T05:54:26.126Z,15.63
2023-02-14T05:56:53.090Z,15.90
2023-02-14T05:59:20.100Z,15.55
2023-02-14T06:01:47.098Z,16.17
2023-02-14T06:04:14.060Z,15.93
2023-02-14T06:06:41.041Z,15.60
2023-02-14T06:09:07.892Z,15.95
2023-02-14T06:11:34.913Z,16.10
2023-02-14T06:14:01.824Z,16.05
2023-02-14T06:16:38.328Z,15.63
2023-02-14T06:21:32.114Z,15.82
2023-02-14T06:24:02.809Z,16.40
2023-02-14T06:26:29.744Z,16.10
2023-02-14T06:28:58.702Z,15.93
2023-02-14T06:31:26.265Z,15.38
2023-02-14T06:33:54.396Z,14.95
2023-02-14T06:36:23.461Z,15.48
2023-02-14T06:38:50.886Z,15.40
2023-02-14T06:41:18.125Z,16.90
2023-02-14T06:43:45.965Z,17.15
2023-02-14T06:46:13.604Z,17.38
2023-02-14T06:48:40.717Z,18.25
2023-02-14T06:51:08.026Z,18.50
2023-02-14T06:53:35.205Z,18.25
2023-02-14T06:56:07.465Z,18.23
2023-02-14T06:58:34.831Z,17.10
2023-02-14T07:01:02.112Z,16.50
2023-02-14T07:03:29.257Z,15.32
2023-02-14T07:05:58.003Z,14.57
2023-02-14T07:08:26.516Z,13.90
2023-02-14T07:10:58.029Z,13.75
2023-02-14T07:13:25.748Z,13.63
2023-02-14T07:15:52.668Z,12.75
2023-02-14T07:18:22.647Z,12.55
2023-02-14T07:20:51.424Z,12.85
2023-02-14T07:23:18.790Z,12.43
2023-02-14T07:25:46.032Z,12.60
2023-02-14T07:28:12.946Z,12.15
2023-02-14T07:30:39.926Z,11.40
2023-02-14T07:33:06.978Z,11.30
2023-02-14T07:35:35.247Z,10.10
2023-02-14T07:38:02.270Z,11.32
2023-02-14T07:40:30.098Z,11.32
2023-02-14T07:42:58.479Z,11.25
2023-02-14T07:45:25.696Z,11.07
2023-02-14T07:47:55.225Z,11.52
2023-02-14T07:50:23.441Z,11.60
2023-02-14T07:52:50.718Z,11.68
2023-02-14T07:55:19.403Z,11.77
2023-02-14T07:57:48.586Z,11.73
2023-02-14T08:00:16.108Z,10.75
2023-02-14T08:02:43.036Z,12.50
2023-02-14T08:05:10.639Z,12.80
2023-02-14T08:07:37.636Z,13.00
2023-02-14T08:10:05.198Z,13.65
2023-02-14T08:12:50.658Z,15.48
2023-02-14T08:15:36.526Z,14.18
2023-02-14T08:18:03.755Z,14.63
2023-02-14T08:20:30.886Z,14.85
2023-02-14T08:22:58.054Z,14.68
2023-02-14T08:25:24.912Z,14.02
2023-02-14T08:27:51.791Z,14.88
2023-02-14T08:30:19.031Z,15.00
2023-02-14T08:32:46.146Z,15.48
2023-02-14T08:35:13.585Z,15.35
2023-02-14T08:37:40.488Z,16.65
2023-02-14T08:40:08.200Z,16.13
2023-02-14T08:42:35.156Z,16.20
2023-02-14T08:45:02.120Z,17.83
2023-02-14T08:47:28.942Z,16.45
2023-02-14T08:49:55.814Z,16.50
2023-02-14T08:52:22.709Z,17.13
2023-02-14T08:54:49.548Z,18.38
2023-02-14T08:57:16.383Z,17.35
2023-02-14T08:59:43.589Z,17.95
2023-02-14T09:02:13.809Z,18.58
2023-02-14T09:04:40.847Z,17.65
2023-02-14T09:07:08.134Z,18.42
2023-02-14T09:09:35.025Z,18.92
2023-02-14T09:12:07.028Z,19.85
2023-02-14T09:14:44.082Z,18.45
2023-02-14T09:17:15.144Z,18.90
2023-02-14T09:19:42.666Z,19.10
2023-02-14T09:22:11.091Z,19.60
2023-02-14T09:24:39.706Z,18.92
2023-02-14T09:27:07.522Z,18.30
2023-02-14T09:29:34.484Z,19.67
2023-02-14T09:32:02.345Z,18.63
2023-02-14T09:34:48.416Z,18.67
2023-02-14T09:37:15.660Z,19.27
2023-02-14T09:39:42.626Z,19.08
2023-02-14T09:42:31.149Z,18.85
2023-02-14T09:44:59.850Z,18.63
2023-02-14T09:47:49.627Z,17.88
2023-02-14T09:50:28.050Z,18.58
2023-02-14T09:53:03.208Z,19.50
2023-02-14T09:55:40.029Z,18.50
2023-02-14T09:58:16.062Z,17.70
2023-02-14T10:00:52.142Z,17.25
2023-02-14T10:03:53.095Z,15.85
2023-02-14T10:06:45.104Z,14.95
2023-02-14T10:09:30.244Z,15.27
2023-02-14T10:11:59.961Z,14.57
2023-02-14T10:18:17.621Z,14.77
2023-02-14T10:21:03.393Z,15.57
2023-02-14T10:23:38.131Z,15.52
2023-02-14T10:26:06.458Z,16.13
2023-02-14T10:28:36.243Z,15.02
2023-02-14T10:31:21.335Z,15.77
2023-02-14T10:34:12.112Z,14.73
2023-02-14T10:36:42.032Z,14.48
2023-02-14T10:39:30.123Z,14.88
2023-02-14T10:42:00.214Z,15.07
2023-02-14T10:44:45.637Z,15.20
2023-02-14T10:47:54.150Z,13.52
2023-02-14T10:50:52.726Z,12.32
2023-02-14T10:53:26.346Z,13.25
2023-02-14T10:56:00.145Z,14.25
2023-02-14T10:58:30.775Z,14.00
2023-02-14T11:01:13.444Z,13.93
2023-02-14T11:03:47.934Z,13.13
2023-02-14T11:06:16.216Z,13.20
2023-02-14T11:08:43.119Z,12.88
2023-02-14T11:11:18.642Z,13.20
2023-02-14T11:13:46.358Z,12.85
2023-02-14T11:16:28.117Z,11.80
2023-02-14T11:19:14.710Z,12.40
2023-02-14T11:21:46.983Z,12.00
2023-02-14T11:24:38.172Z,12.48
2023-02-14T11:27:11.638Z,11.55
2023-02-14T11:29:41.549Z,12.32
2023-02-14T11:32:14.684Z,11.88
2023-02-14T11:34:48.197Z,12.23
2023-02-14T11:37:32.447Z,12.52
2023-02-14T11:40:01.438Z,13.00
2023-02-14T11:42:43.040Z,12.23
2023-02-14T11:45:36.101Z,11.70
2023-02-14T11:48:36.565Z,12.88
2023-02-14T11:51:11.299Z,13.10
2023-02-14T11:53:45.933Z,13.23
2023-02-14T11:56:14.087Z,13.60
2023-02-14T11:58:51.088Z,13.50
2023-02-14T12:01:32.277Z,13.75
2023-02-14T12:04:17.891Z,12.82
2023-02-14T12:06:45.906Z,13.75
2023-02-14T12:09:16.570Z,13.40
2023-02-14T12:12:01.812Z,12.70
2023-02-14T12:14:32.072Z,14.65
2023-02-14T12:17:03.264Z,13.52
2023-02-14T12:19:40.885Z,12.75
2023-02-14T12:22:13.046Z,13.27
2023-02-14T12:25:00.162Z,13.60
2023-02-14T12:27:27.338Z,13.32
2023-02-14T12:29:54.384Z,13.35
2023-02-14T12:32:25.336Z,14.75
2023-02-14T12:35:03.182Z,14.57
2023-02-14T12:38:04.586Z,14.45
2023-02-14T12:41:07.147Z,13.70
2023-02-14T12:43:56.357Z,13.85
2023-02-14T13:07:08.873Z,15.15
2023-02-14T13:34:46.534Z,15.98
2023-02-14T13:37:18.653Z,16.08
2023-02-14T13:40:08.481Z,15.85
2023-02-14T13:42:50.488Z,17.38
2023-02-14T13:45:32.952Z,16.50
2023-02-14T13:48:31.813Z,17.40
2023-02-14T13:51:07.551Z,16.10
2023-02-14T13:53:46.497Z,16.13
2023-02-14T13:56:13.507Z,16.67
2023-02-14T13:58:54.305Z,15.90
2023-02-14T14:01:50.299Z,16.15
2023-02-14T14:04:30.373Z,16.55
2023-02-14T14:07:03.317Z,16.08
2023-02-14T14:09:42.219Z,16.63
2023-02-14T14:12:27.709Z,17.05
2023-02-14T14:15:06.974Z,16.80
2023-02-14T14:17:39.777Z,16.63
2023-02-14T14:20:21.897Z,16.08
2023-02-14T14:22:50.141Z,16.05
2023-02-14T14:25:39.601Z,16.50
2023-02-14T14:28:19.542Z,15.93
2023-02-14T14:30:47.267Z,16.33
2023-02-14T14:33:31.294Z,17.05
2023-02-14T14:36:00.225Z,16.55
2023-02-14T14:38:28.840Z,16.13
2023-02-14T14:40:56.081Z,15.68
2023-02-14T14:43:30.256Z,16.63
2023-02-14T14:45:59.892Z,15.88
2023-02-14T14:48:30.964Z,16.25
2023-02-14T14:50:59.232Z,16.70
2023-02-14T14:53:37.172Z,17.67
2023-02-14T14:56:04.343Z,16.85
2023-02-14T14:58:33.983Z,17.25
2023-02-14T15:01:00.939Z,16.98
2023-02-14T15:03:29.342Z,17.35
2023-02-14T15:06:14.276Z,16.83
2023-02-14T15:08:41.598Z,17.13
2023-02-14T15:11:46.462Z,17.88
2023-02-14T15:14:21.518Z,17.48
2023-02-14T15:16:52.066Z,17.92
2023-02-14T15:19:31.077Z,16.98
2023-02-14T15:21:58.184Z,16.52
2023-02-14T15:24:26.856Z,17.48
2023-02-14T15:26:54.137Z,16.98
2023-02-14T15:29:26.355Z,17.40
2023-02-14T15:31:54.066Z,16.73
2023-02-14T15:34:24.979Z,17.40
2023-02-14T15:36:59.251Z,16.42
2023-02-14T15:39:35.380Z,17.27
2023-02-14T15:42:02.441Z,18.05
2023-02-14T15:44:29.392Z,17.27
2023-02-14T15:46:58.917Z,16.98
2023-02-14T15:49:35.683Z,17.10
2023-02-14T15:52:05.692Z,17.17
2023-02-14T15:54:44.906Z,18.45
2023-02-14T15:57:26.264Z,16.63
2023-02-14T15:59:54.161Z,19.08
2023-02-14T16:02:27.469Z,17.38
2023-02-14T16:04:54.590Z,17.27
2023-02-14T16:07:21.476Z,17.50
2023-02-14T16:10:12.424Z,17.20
2023-02-14T16:12:41.496Z,17.23
2023-02-14T16:15:21.615Z,17.92
2023-02-14T16:17:48.918Z,18.13
2023-02-14T16:20:21.224Z,17.30
2023-02-14T16:22:48.207Z,18.02
2023-02-14T16:25:16.299Z,18.02
2023-02-14T16:27:43.205Z,18.13
2023-02-14T16:30:19.945Z,17.55
2023-02-14T16:32:51.512Z,18.92
2023-02-14T16:35:21.339Z,17.40
2023-02-14T16:37:50.635Z,17.45
2023-02-14T16:40:20.095Z,17.83
2023-02-14T16:42:47.034Z,18.08
2023-02-14T16:45:18.032Z,18.38
2023-02-14T16:47:48.881Z,18.90
2023-02-14T16:50:16.467Z,18.00
2023-02-14T16:52:51.934Z,18.73
2023-02-14T16:55:20.197Z,18.83
2023-02-14T16:57:50.720Z,18.70
2023-02-14T17:00:17.850Z,18.02
2023-02-14T17:02:45.044Z,18.70
2023-02-14T17:05:12.418Z,17.92
2023-02-14T17:07:42.654Z,20.30
2023-02-14T17:10:14.889Z,19.85
2023-02-14T17:12:45.762Z,19.02
2023-02-14T17:15:21.550Z,19.17
2023-02-14T17:17:50.315Z,19.60
2023-02-14T17:20:19.960Z,19.95
2023-02-14T17:22:46.890Z,20.05
2023-02-14T17:25:14.218Z,20.23
2023-02-14T17:27:44.017Z,20.27
2023-02-14T17:30:12.577Z,19.25
2023-02-14T17:32:39.467Z,20.77
2023-02-14T17:35:08.834Z,19.45
2023-02-14T17:37:38.616Z,20.55
2023-02-14T17:40:06.146Z,20.75
2023-02-14T17:42:33.729Z,20.92
2023-02-14T17:45:01.080Z,21.23
2023-02-14T17:47:29.335Z,21.17
2023-02-14T17:49:57.237Z,21.20
2023-02-14T17:52:25.200Z,20.02
2023-02-14T17:54:52.061Z,20.45
2023-02-14T17:57:19.175Z,21.02
2023-02-14T17:59:46.884Z,21.40
2023-02-14T18:02:14.030Z,20.15
2023-02-14T18:04:40.850Z,20.88
2023-02-14T18:07:08.226Z,21.33
2023-02-14T18:09:35.157Z,21.17
2023-02-14T18:12:02.532Z,21.17
2023-02-14T18:14:29.416Z,20.10
2023-02-14T18:16:56.326Z,19.42
2023-02-14T18:19:23.321Z,19.73
2023-02-14T18:21:50.246Z,19.02
2023-02-14T18:24:17.250Z,18.88
2023-02-14T18:26:44.678Z,19.05
2023-02-14T18:29:12.782Z,19.67
2023-02-14T18:31:42.148Z,19.42
2023-02-14T18:34:09.535Z,19.23
2023-02-14T18:36:38.769Z,19.85
2023-02-14T18:39:06.106Z,20.67
2023-02-14T18:41:33.564Z,18.58
2023-02-14T18:44:01.651Z,19.30
2023-02-14T18:46:31.596Z,19.58
2023-02-14T18:48:59.278Z,20.02
2023-02-14T18:51:32.495Z,20.85
2023-02-14T18:54:04.608Z,18.98
2023-02-14T18:56:34.259Z,19.95
2023-02-14T18:59:08.014Z,19.90
2023-02-14T19:01:38.059Z,21.88
2023-02-14T19:04:08.157Z,20.42
2023-02-14T19:06:36.001Z,20.45
2023-02-14T19:09:07.170Z,19.27
2023-02-14T19:11:34.241Z,20.08
2023-02-14T19:14:02.738Z,20.58
2023-02-14T19:16:33.544Z,20.88
2023-02-14T19:19:02.827Z,21.27
2023-02-14T19:21:33.610Z,21.98
2023-02-14T19:24:02.559Z,21.27
2023-02-14T19:26:37.176Z,21.35
2023-02-14T19:29:07.474Z,20.67
2023-02-14T19:31:37.537Z,21.25
2023-02-14T19:34:06.682Z,19.92
2023-02-14T19:36:37.456Z,21.38
2023-02-14T19:39:04.716Z,20.45
2023-02-14T19:41:34.628Z,20.75
2023-02-14T19:44:04.576Z,20.25
2023-02-14T19:46:32.312Z,21.35
2023-02-14T19:49:00.297Z,21.55
2023-02-14T19:51:33.078Z,20.58
2023-02-14T19:54:02.194Z,20.23
2023-02-14T19:56:31.938Z,20.65
2023-02-14T19:58:59.890Z,22.08
2023-02-14T20:01:36.361Z,21.55
2023-02-14T20:06:30.991Z,20.15
2023-02-14T20:08:58.054Z,21.25
2023-02-14T20:11:35.894Z,21.48
2023-02-14T20:14:04.869Z,21.75
2023-02-14T20:16:34.176Z,22.00
2023-02-14T20:19:02.796Z,20.30
2023-02-14T20:21:29.924Z,21.80
2023-02-14T20:24:03.786Z,22.27
2023-02-14T20:26:32.098Z,20.50
2023-02-14T20:29:00.843Z,21.65
2023-02-14T20:31:27.825Z,22.00
2023-02-14T20:33:55.680Z,21.98
2023-02-14T20:36:22.730Z,21.73
2023-02-14T20:38:58.322Z,22.05
2023-02-14T20:41:26.442Z,21.93
2023-02-14T20:43:54.443Z,21.60
2023-02-14T20:46:22.808Z,22.08
2023-02-14T20:48:51.037Z,22.40
2023-02-14T20:51:20.690Z,22.90
2023-02-14T20:53:48.060Z,22.35
2023-02-14T20:56:16.071Z,21.83
2023-02-14T20:58:43.482Z,21.17
2023-02-14T21:01:13.438Z,22.20
2023-02-14T21:03:41.891Z,22.05
2023-02-14T21:06:11.710Z,21.58
2023-02-14T21:08:39.429Z,22.33
2023-02-14T21:11:07.567Z,21.27
2023-02-14T21:13:34.608Z,21.85
2023-02-14T21:16:03.831Z,22.55
2023-02-14T21:18:30.917Z,23.58
2023-02-14T21:21:18.001Z,22.65
2023-02-14T21:23:44.917Z,22.67
2023-02-14T21:26:12.113Z,22.30
2023-02-14T21:28:39.250Z,22.38
2023-02-14T21:31:08.511Z,21.90
2023-02-14T21:33:36.533Z,23.02
2023-02-14T21:36:14.611Z,23.05
2023-02-14T21:38:42.091Z,23.05
2023-02-14T21:41:12.095Z,23.23
2023-02-14T21:43:41.638Z,25.05
2023-02-14T21:46:14.485Z,22.65
2023-02-14T21:49:00.492Z,23.48
2023-02-14T21:51:28.308Z,23.83
2023-02-14T21:53:55.921Z,22.63
2023-02-14T21:56:23.929Z,25.08
2023-02-14T21:58:52.868Z,22.98
2023-02-14T22:01:26.508Z,22.65
2023-02-14T22:03:54.575Z,23.50
2023-02-14T22:06:21.982Z,22.42
2023-02-14T22:08:57.016Z,22.27
2023-02-14T22:11:25.390Z,22.42
2023-02-14T22:13:52.494Z,22.48
2023-02-14T22:16:21.327Z,21.65
2023-02-14T22:18:48.273Z,21.42
2023-02-14T22:21:18.340Z,22.15
2023-02-14T22:23:45.281Z,22.20
2023-02-14T22:26:16.940Z,22.20
2023-02-14T22:28:46.179Z,21.90
2023-02-14T22:31:14.733Z,21.90
2023-02-14T22:33:41.953Z,21.33
2023-02-14T22:36:09.671Z,21.67
2023-02-14T22:38:37.094Z,21.92
2023-02-14T22:41:09.599Z,22.65
2023-02-14T22:43:37.725Z,24.35
2023-02-14T23:06:39.654Z,21.60
2023-02-14T23:09:08.366Z,22.13
2023-02-14T23:11:37.491Z,23.02
2023-02-14T23:14:23.762Z,21.52
2023-02-14T23:17:09.448Z,22.52
2023-02-14T23:19:56.463Z,21.02
2023-02-14T23:24:53.775Z,21.35
2023-02-14T23:27:31.540Z,22.00
2023-02-14T23:29:58.361Z,21.27
2023-02-14T23:32:25.526Z,22.40
2023-02-14T23:34:52.530Z,23.55
2023-02-14T23:37:19.877Z,23.05
2023-02-14T23:39:46.863Z,22.15
2023-02-14T23:42:14.988Z,21.77
2023-02-14T23:44:46.231Z,20.88
2023-02-14T23:47:14.289Z,21.58
2023-02-14T23:49:41.974Z,22.92
2023-02-14T23:52:11.785Z,21.90
2023-02-14T23:54:39.587Z,21.75
2023-02-14T23:57:07.566Z,20.23
2023-02-14T23:59:34.849Z,19.65
